createdAt,value
2023-03-23T00:00:37.472Z,16.75
2023-03-23T00:10:40.316Z,14.52
2023-03-23T00:20:50.265Z,16.38
2023-03-23T00:30:59.227Z,16.52
2023-03-23T00:41:04.302Z,17.08
2023-03-23T00:51:12.903Z,17.00
2023-03-23T01:01:15.122Z,18.05
2023-03-23T01:11:23.448Z,17.02
2023-03-23T01:21:28.027Z,15.90
2023-03-23T01:31:30.214Z,15.52
2023-03-23T01:41:36.087Z,15.10
2023-03-23T01:51:48.085Z,14.52
2023-03-23T02:01:53.690Z,14.80
2023-03-23T02:11:56.587Z,15.90
2023-03-23T02:22:07.914Z,13.18
2023-03-23T02:32:42.479Z,13.45
2023-03-23T02:42:48.944Z,12.55
2023-03-23T02:52:52.063Z,12.98
2023-03-23T03:02:56.125Z,13.50
2023-03-23T03:13:26.577Z,12.98
2023-03-23T03:23:29.376Z,12.27
2023-03-23T03:33:37.807Z,13.00
2023-03-23T03:43:42.828Z,11.90
2023-03-23T03:53:48.892Z,12.07
2023-03-23T04:03:52.886Z,10.80
2023-03-23T04:14:06.341Z,11.38
2023-03-23T04:24:23.298Z,12.02
2023-03-23T04:34:49.968Z,12.00
2023-03-23T04:44:56.796Z,11.43
2023-03-23T04:55:07.091Z,9.07
2023-03-23T05:05:13.232Z,10.32
2023-03-23T05:15:18.834Z,9.43
2023-03-23T05:25:25.134Z,11.07
2023-03-23T05:35:36.111Z,11.43
2023-03-23T05:45:40.846Z,12.40
2023-03-23T05:55:46.426Z,11.00
2023-03-23T06:06:00.106Z,11.27
2023-03-23T06:16:16.978Z,10.57
2023-03-23T06:26:37.763Z,10.07
2023-03-23T06:36:50.505Z,10.52
2023-03-23T06:47:05.449Z,11.10
2023-03-23T06:57:16.958Z,10.70
2023-03-23T07:07:22.455Z,10.18
2023-03-23T07:17:34.640Z,10.18
2023-03-23T07:27:47.016Z,9.68
2023-03-23T07:37:56.380Z,8.60
2023-03-23T07:48:05.290Z,9.18
2023-03-23T07:58:20.364Z,8.70
2023-03-23T08:08:28.478Z,8.43
2023-03-23T08:18:58.104Z,7.57
2023-03-23T08:29:31.948Z,6.88
2023-03-23T08:39:58.497Z,6.20
2023-03-23T08:50:16.189Z,6.03
2023-03-23T09:00:44.083Z,6.18
2023-03-23T09:11:13.389Z,5.10
2023-03-23T09:21:18.919Z,5.65
2023-03-23T09:31:23.822Z,4.20
2023-03-23T09:41:50.878Z,4.68
2023-03-23T09:52:24.126Z,4.18
2023-03-23T10:02:42.400Z,4.25
2023-03-23T10:12:54.943Z,4.07
2023-03-23T10:23:22.641Z,4.20
2023-03-23T10:33:44.205Z,3.55
2023-03-23T10:43:56.032Z,3.60
2023-03-23T10:54:05.560Z,3.35
2023-03-23T11:04:14.287Z,3.55
2023-03-23T11:14:20.926Z,4.00
2023-03-23T11:24:29.194Z,3.13
2023-03-23T11:34:36.764Z,1.70
2023-03-23T11:44:48.399Z,1.92
2023-03-23T11:55:13.475Z,2.22
2023-03-23T12:05:45.390Z,2.00
2023-03-23T12:15:55.505Z,1.60
2023-03-23T12:26:08.100Z,2.05
2023-03-23T12:36:52.278Z,2.50
2023-03-23T12:47:32.166Z,2.38
2023-03-23T12:57:46.446Z,2.50
2023-03-23T13:08:06.105Z,2.85
2023-03-23T13:18:40.873Z,3.75
2023-03-23T13:29:09.984Z,3.30
2023-03-23T13:39:25.531Z,2.88
2023-03-23T13:49:34.268Z,3.45
2023-03-23T13:59:50.207Z,3.20
2023-03-23T14:09:57.312Z,2.70
2023-03-23T14:20:02.138Z,2.83
2023-03-23T14:30:18.099Z,2.90
2023-03-23T14:40:27.087Z,3.38
2023-03-23T14:50:41.790Z,3.67
2023-03-23T15:00:57.369Z,3.38
2023-03-23T15:11:05.062Z,3.58
2023-03-23T15:21:25.371Z,4.40
2023-03-23T15:31:32.233Z,3.80
2023-03-23T15:41:35.024Z,3.30
2023-03-23T15:51:39.425Z,4.18
2023-03-23T16:01:48.720Z,3.92
2023-03-23T16:11:54.022Z,3.80
2023-03-23T16:21:56.370Z,4.47
2023-03-23T16:32:00.891Z,4.63
2023-03-23T16:42:03.334Z,4.53
2023-03-23T16:52:06.883Z,3.53
2023-03-23T17:02:14.762Z,4.18
2023-03-23T17:12:17.256Z,3.97
2023-03-23T17:22:19.696Z,4.20
2023-03-23T17:32:26.608Z,4.63
2023-03-23T17:42:32.114Z,4.53
2023-03-23T17:52:36.794Z,4.50
2023-03-23T18:02:41.815Z,5.05
2023-03-23T18:12:44.933Z,4.55
2023-03-23T18:22:52.085Z,4.78
2023-03-23T18:32:58.962Z,5.28
2023-03-23T18:43:03.175Z,5.03
2023-03-23T18:53:08.277Z,5.43
2023-03-23T19:03:14.069Z,6.70
2023-03-23T19:13:19.662Z,6.28
2023-03-23T19:23:25.337Z,4.72
2023-03-23T19:33:29.567Z,4.22
2023-03-23T19:43:37.703Z,3.35
2023-03-23T19:53:47.421Z,3.13
2023-03-23T20:03:55.439Z,3.30
2023-03-23T20:14:04.758Z,2.33
2023-03-23T20:24:10.178Z,2.63
2023-03-23T20:34:28.925Z,2.60
2023-03-23T20:44:35.213Z,2.53
2023-03-23T20:54:38.233Z,3.13
2023-03-23T21:04:45.491Z,2.35
2023-03-23T21:14:56.209Z,3.15
2023-03-23T21:25:00.662Z,2.80
2023-03-23T21:35:03.798Z,3.13
2023-03-23T21:45:06.808Z,3.08
2023-03-23T21:55:12.899Z,2.95
2023-03-23T22:05:21.404Z,4.25
2023-03-23T22:15:28.285Z,3.70
2023-03-23T22:25:31.104Z,4.40
2023-03-23T22:35:43.407Z,4.40
2023-03-23T22:45:53.040Z,6.50
2023-03-23T22:55:57.461Z,5.68
2023-03-23T23:06:05.303Z,5.00
2023-03-23T23:16:13.595Z,4.65
2023-03-23T23:26:17.513Z,4.00
2023-03-23T23:36:28.749Z,4.10
2023-03-23T23:46:31.673Z,4.50
2023-03-23T23:56:34.379Z,4.30
